createdAt,value
2018-03-22T00:01:40.794Z,3.90
2018-03-22T00:04:09.092Z,3.90
2018-03-22T00:06:37.360Z,3.90
2018-03-22T00:09:05.656Z,4.00
2018-03-22T00:11:33.920Z,4.00
2018-03-22T00:14:02.222Z,4.10
2018-03-22T00:16:30.492Z,4.00
2018-03-22T00:18:58.786Z,4.00
2018-03-22T00:21:27.079Z,4.00
2018-03-22T00:23:55.343Z,4.00
2018-03-22T00:26:23.641Z,4.00
2018-03-22T00:28:51.909Z,4.00
2018-03-22T00:31:26.092Z,4.10
2018-03-22T00:33:55.359Z,4.10
2018-03-22T00:36:23.649Z,4.00
2018-03-22T00:38:51.921Z,4.00
2018-03-22T00:41:20.264Z,4.00
2018-03-22T00:43:48.518Z,4.00
2018-03-22T00:46:16.767Z,4.00
2018-03-22T00:48:46.086Z,4.00
2018-03-22T00:51:15.572Z,4.00
2018-03-22T00:53:43.895Z,4.00
2018-03-22T00:56:12.150Z,4.00
2018-03-22T00:58:40.435Z,4.00
2018-03-22T01:01:08.934Z,4.10
2018-03-22T01:03:37.192Z,4.10
2018-03-22T01:06:05.484Z,4.10
2018-03-22T01:08:33.742Z,4.00
2018-03-22T01:11:02.033Z,4.00
2018-03-22T01:13:30.329Z,4.00
2018-03-22T01:15:58.584Z,4.00
2018-03-22T01:18:26.875Z,4.00
2018-03-22T01:20:55.128Z,4.00
2018-03-22T01:23:23.395Z,4.10
2018-03-22T01:25:52.207Z,4.10
2018-03-22T01:28:20.477Z,4.00
2018-03-22T01:30:47.970Z,4.00
2018-03-22T01:33:17.514Z,4.10
2018-03-22T01:35:46.996Z,4.00
2018-03-22T01:38:16.263Z,4.00
2018-03-22T01:40:44.532Z,4.00
2018-03-22T01:43:12.063Z,4.00
2018-03-22T01:45:40.325Z,4.10
2018-03-22T01:48:08.617Z,4.10
2018-03-22T01:50:36.876Z,4.10
2018-03-22T01:53:15.555Z,4.10
2018-03-22T01:55:43.814Z,4.10
2018-03-22T01:58:12.080Z,4.10
2018-03-22T02:00:40.368Z,4.20
2018-03-22T02:03:08.655Z,4.20
2018-03-22T02:05:36.916Z,4.20
2018-03-22T02:08:05.231Z,4.20
2018-03-22T02:10:33.486Z,4.20
2018-03-22T02:13:02.646Z,4.20
2018-03-22T02:15:30.944Z,4.30
2018-03-22T02:17:59.199Z,4.30
2018-03-22T02:20:27.450Z,4.30
2018-03-22T02:22:55.730Z,4.30
2018-03-22T02:25:24.026Z,4.30
2018-03-22T02:27:52.278Z,4.30
2018-03-22T02:30:20.532Z,4.20
2018-03-22T02:32:48.814Z,4.30
2018-03-22T02:35:17.070Z,4.20
2018-03-22T02:37:46.199Z,4.20
2018-03-22T02:40:15.077Z,4.20
2018-03-22T02:42:43.375Z,4.30
2018-03-22T02:45:11.622Z,4.30
2018-03-22T02:47:39.898Z,4.30
2018-03-22T02:50:08.179Z,4.20
2018-03-22T02:52:36.439Z,4.30
2018-03-22T02:55:04.734Z,4.30
2018-03-22T02:57:32.988Z,4.30
2018-03-22T03:00:01.239Z,4.30
2018-03-22T03:02:29.526Z,4.30
2018-03-22T03:04:58.689Z,4.30
2018-03-22T03:07:26.986Z,4.30
2018-03-22T03:09:55.246Z,4.30
2018-03-22T03:12:23.495Z,4.30
2018-03-22T03:14:54.857Z,4.30
2018-03-22T03:17:23.118Z,4.30
2018-03-22T03:19:51.410Z,4.30
2018-03-22T03:22:19.654Z,4.30
2018-03-22T03:24:48.846Z,4.30
2018-03-22T03:27:17.130Z,4.30
2018-03-22T03:29:46.307Z,4.30
2018-03-22T03:32:14.591Z,4.30
2018-03-22T03:34:42.895Z,4.30
2018-03-22T03:37:11.146Z,4.20
2018-03-22T03:39:39.397Z,4.20
2018-03-22T03:42:07.676Z,4.20
2018-03-22T03:44:35.958Z,4.20
2018-03-22T03:47:04.208Z,4.20
2018-03-22T03:49:32.489Z,4.30
2018-03-22T03:52:00.833Z,4.20
2018-03-22T03:54:29.062Z,4.20
2018-03-22T03:56:57.338Z,4.30
2018-03-22T03:59:25.614Z,4.20
2018-03-22T04:01:53.862Z,4.20
2018-03-22T04:04:22.142Z,4.20
2018-03-22T04:06:50.408Z,4.30
2018-03-22T04:09:18.683Z,4.30
2018-03-22T04:11:46.963Z,4.20
2018-03-22T04:14:16.850Z,4.30
2018-03-22T04:16:46.055Z,4.30
2018-03-22T04:19:15.996Z,4.30
2018-03-22T04:21:44.259Z,4.30
2018-03-22T04:24:12.569Z,4.30
2018-03-22T04:26:40.817Z,4.40
2018-03-22T04:29:09.078Z,4.30
2018-03-22T04:31:37.365Z,4.20
2018-03-22T04:34:05.649Z,4.20
2018-03-22T04:36:33.944Z,4.20
2018-03-22T04:39:02.191Z,4.10
2018-03-22T04:41:30.474Z,4.20
2018-03-22T04:43:58.722Z,4.20
2018-03-22T04:46:27.006Z,4.30
2018-03-22T04:48:55.286Z,4.40
2018-03-22T04:51:23.530Z,4.40
2018-03-22T04:53:51.806Z,4.40
2018-03-22T04:56:20.087Z,4.40
2018-03-22T04:58:48.370Z,4.40
2018-03-22T05:01:16.620Z,4.40
2018-03-22T05:03:45.974Z,4.40
2018-03-22T05:06:14.246Z,4.30
2018-03-22T05:08:42.494Z,4.30
2018-03-22T05:11:10.791Z,4.30
2018-03-22T05:13:38.278Z,4.30
2018-03-22T05:16:06.554Z,4.30
2018-03-22T05:18:34.886Z,4.20
2018-03-22T05:21:03.129Z,4.20
2018-03-22T05:23:31.378Z,4.20
2018-03-22T05:25:59.674Z,4.20
2018-03-22T05:28:27.927Z,4.20
2018-03-22T05:30:56.174Z,4.20
2018-03-22T05:33:24.508Z,4.10
2018-03-22T05:35:52.727Z,4.10
2018-03-22T05:38:21.012Z,4.10
2018-03-22T05:40:49.258Z,4.10
2018-03-22T05:43:17.538Z,4.10
2018-03-22T05:45:46.871Z,4.00
2018-03-22T05:48:15.792Z,4.00
2018-03-22T05:50:44.070Z,4.00
2018-03-22T05:53:12.314Z,4.10
2018-03-22T05:55:40.593Z,4.10
2018-03-22T05:58:08.845Z,4.00
2018-03-22T06:00:37.123Z,3.90
2018-03-22T06:03:05.399Z,3.90
2018-03-22T06:05:33.667Z,3.90
2018-03-22T06:08:01.945Z,4.00
2018-03-22T06:10:30.197Z,3.80
2018-03-22T06:12:58.478Z,3.70
2018-03-22T06:15:26.758Z,3.70
2018-03-22T06:17:55.040Z,3.60
2018-03-22T06:20:23.291Z,3.60
2018-03-22T06:22:51.587Z,3.60
2018-03-22T06:25:19.848Z,3.60
2018-03-22T06:27:48.099Z,3.60
2018-03-22T06:30:17.799Z,3.60
2018-03-22T06:32:47.016Z,3.60
2018-03-22T06:35:16.141Z,3.50
2018-03-22T06:37:45.296Z,3.50
2018-03-22T06:40:13.539Z,3.50
2018-03-22T06:42:41.822Z,3.50
2018-03-22T06:45:10.104Z,3.50
2018-03-22T06:47:38.359Z,3.60
2018-03-22T06:50:06.647Z,3.60
2018-03-22T06:52:34.901Z,3.60
2018-03-22T06:55:02.378Z,3.60
2018-03-22T06:57:30.657Z,3.60
2018-03-22T06:59:58.925Z,3.60
2018-03-22T07:02:27.234Z,3.60
2018-03-22T07:04:54.721Z,3.60
2018-03-22T07:07:22.975Z,3.70
2018-03-22T07:09:51.258Z,3.60
2018-03-22T07:12:19.525Z,3.70
2018-03-22T07:14:48.718Z,3.70
2018-03-22T07:17:16.974Z,3.60
2018-03-22T07:19:46.552Z,3.60
2018-03-22T07:22:15.974Z,3.60
2018-03-22T07:24:44.232Z,3.70
2018-03-22T07:27:12.515Z,3.70
2018-03-22T07:29:40.798Z,3.80
2018-03-22T07:32:09.046Z,3.80
2018-03-22T07:34:37.325Z,3.80
2018-03-22T07:37:05.614Z,3.80
2018-03-22T07:39:33.864Z,3.80
2018-03-22T07:42:02.150Z,3.70
2018-03-22T07:44:36.067Z,3.80
2018-03-22T07:47:04.355Z,3.80
2018-03-22T07:49:32.633Z,3.80
2018-03-22T07:52:00.887Z,3.80
2018-03-22T07:54:29.161Z,3.90
2018-03-22T07:56:57.415Z,3.90
2018-03-22T07:59:25.694Z,3.90
2018-03-22T08:01:53.987Z,3.90
2018-03-22T08:04:22.238Z,3.90
2018-03-22T08:06:50.499Z,3.90
2018-03-22T08:09:18.790Z,3.90
2018-03-22T08:11:47.052Z,3.90
2018-03-22T08:14:16.149Z,4.00
2018-03-22T08:16:45.057Z,4.10
2018-03-22T08:19:13.307Z,4.10
2018-03-22T08:21:41.608Z,4.10
2018-03-22T08:24:09.895Z,4.10
2018-03-22T08:26:38.147Z,4.10
2018-03-22T08:29:06.432Z,4.10
2018-03-22T08:31:34.696Z,4.20
2018-03-22T08:34:02.982Z,4.20
2018-03-22T08:36:31.230Z,4.20
2018-03-22T08:38:59.487Z,4.30
2018-03-22T08:41:27.762Z,4.20
2018-03-22T08:43:56.015Z,4.20
2018-03-22T08:46:24.292Z,4.20
2018-03-22T08:48:52.598Z,4.20
2018-03-22T08:51:20.851Z,4.30
2018-03-22T08:53:49.102Z,4.30
2018-03-22T08:56:17.383Z,4.30
2018-03-22T08:58:45.642Z,4.30
2018-03-22T09:01:13.931Z,4.40
2018-03-22T09:03:42.202Z,4.40
2018-03-22T09:06:10.486Z,4.40
2018-03-22T09:08:38.767Z,4.40
2018-03-22T09:11:06.283Z,4.40
2018-03-22T09:13:34.544Z,4.50
2018-03-22T09:16:02.837Z,4.50
2018-03-22T09:18:31.094Z,4.50
2018-03-22T09:20:59.377Z,4.60
2018-03-22T09:23:27.642Z,4.70
2018-03-22T09:25:55.916Z,4.70
2018-03-22T09:28:24.201Z,4.70
2018-03-22T09:30:52.454Z,4.70
2018-03-22T09:33:20.703Z,4.80
2018-03-22T09:35:48.982Z,4.90
2018-03-22T09:38:17.586Z,4.80
2018-03-22T09:40:47.014Z,4.90
2018-03-22T09:43:16.178Z,4.80
2018-03-22T09:45:45.135Z,4.90
2018-03-22T09:48:13.423Z,5.00
2018-03-22T09:50:41.690Z,5.00
2018-03-22T09:53:09.977Z,5.20
2018-03-22T09:55:38.266Z,5.20
2018-03-22T09:58:06.547Z,5.20
2018-03-22T10:00:34.809Z,5.30
2018-03-22T10:03:02.340Z,5.20
2018-03-22T10:05:30.625Z,5.30
2018-03-22T10:07:58.903Z,5.40
2018-03-22T10:10:27.182Z,5.40
2018-03-22T10:12:55.430Z,5.30
2018-03-22T10:15:23.707Z,5.40
2018-03-22T10:17:51.990Z,5.40
2018-03-22T10:20:20.238Z,5.40
2018-03-22T10:22:48.503Z,5.40
2018-03-22T10:25:16.751Z,5.40
2018-03-22T10:27:46.432Z,5.50
2018-03-22T10:30:14.686Z,5.50
2018-03-22T10:32:42.970Z,5.50
2018-03-22T10:35:11.221Z,5.50
2018-03-22T10:37:39.507Z,5.50
2018-03-22T10:40:07.757Z,5.50
2018-03-22T10:42:36.003Z,5.60
2018-03-22T10:45:04.278Z,5.50
2018-03-22T10:47:32.540Z,5.60
2018-03-22T10:50:00.850Z,5.60
2018-03-22T10:52:29.094Z,5.70
2018-03-22T10:54:57.369Z,5.80
2018-03-22T10:57:26.033Z,5.80
2018-03-22T10:59:54.338Z,5.70
2018-03-22T11:02:28.222Z,5.90
2018-03-22T11:04:56.466Z,5.90
2018-03-22T11:07:24.747Z,6.00
2018-03-22T11:09:53.000Z,6.00
2018-03-22T11:12:21.278Z,6.10
2018-03-22T11:14:49.530Z,6.00
2018-03-22T11:17:17.810Z,6.10
2018-03-22T11:19:47.789Z,6.10
2018-03-22T11:22:17.158Z,6.10
2018-03-22T11:24:46.674Z,6.00
2018-03-22T11:27:15.675Z,6.10
2018-03-22T11:29:43.954Z,6.20
2018-03-22T11:32:12.246Z,6.20
2018-03-22T11:34:39.726Z,6.20
2018-03-22T11:37:07.978Z,6.20
2018-03-22T11:39:36.258Z,6.30
2018-03-22T11:42:04.530Z,6.50
2018-03-22T11:44:32.819Z,6.40
2018-03-22T11:47:01.106Z,6.40
2018-03-22T11:49:29.357Z,6.50
2018-03-22T11:51:57.650Z,6.60
2018-03-22T11:54:25.965Z,6.60
2018-03-22T11:56:54.244Z,6.70
2018-03-22T11:59:22.490Z,6.80
2018-03-22T12:01:50.812Z,6.80
2018-03-22T12:04:19.059Z,6.80
2018-03-22T12:06:47.341Z,6.90
2018-03-22T12:09:15.632Z,6.80
2018-03-22T12:11:43.874Z,6.90
2018-03-22T12:14:12.162Z,6.90
2018-03-22T12:16:40.442Z,6.90
2018-03-22T12:19:08.713Z,7.00
2018-03-22T12:21:37.018Z,7.10
2018-03-22T12:24:05.283Z,7.10
2018-03-22T12:26:32.766Z,7.10
2018-03-22T12:29:01.046Z,7.30
2018-03-22T12:31:29.299Z,7.40
2018-03-22T12:33:57.582Z,7.50
2018-03-22T12:36:25.845Z,7.80
2018-03-22T12:38:54.130Z,7.90
2018-03-22T12:41:22.382Z,8.20
2018-03-22T12:43:50.663Z,8.40
2018-03-22T12:46:18.927Z,8.40
2018-03-22T12:48:47.205Z,8.30
2018-03-22T12:51:16.433Z,8.20
2018-03-22T12:53:44.718Z,8.20
2018-03-22T12:56:12.972Z,8.10
2018-03-22T12:58:41.254Z,8.10
2018-03-22T13:01:09.534Z,8.00
2018-03-22T13:03:37.789Z,8.00
2018-03-22T13:06:06.066Z,8.00
2018-03-22T13:08:34.418Z,7.90
2018-03-22T13:11:02.707Z,7.90
2018-03-22T13:13:30.958Z,7.90
2018-03-22T13:15:59.202Z,7.90
2018-03-22T13:18:30.773Z,7.90
2018-03-22T13:20:59.126Z,7.90
2018-03-22T13:23:27.377Z,7.80
2018-03-22T13:25:56.594Z,7.80
2018-03-22T13:28:24.842Z,7.90
2018-03-22T13:30:53.099Z,7.80
2018-03-22T13:33:21.379Z,7.90
2018-03-22T13:35:49.673Z,7.90
2018-03-22T13:38:17.933Z,7.90
2018-03-22T13:40:47.354Z,7.90
2018-03-22T13:43:15.989Z,7.90
2018-03-22T13:45:53.420Z,7.90
2018-03-22T13:48:21.634Z,8.00
2018-03-22T13:50:49.921Z,8.10
2018-03-22T13:53:18.214Z,8.10
2018-03-22T13:55:49.458Z,8.10
2018-03-22T13:58:17.746Z,8.20
2018-03-22T14:00:47.278Z,8.30
2018-03-22T14:03:15.535Z,8.20
2018-03-22T14:05:52.110Z,8.30
2018-03-22T14:08:20.366Z,8.30
2018-03-22T14:10:48.654Z,8.30
2018-03-22T14:13:16.906Z,8.30
2018-03-22T14:15:46.202Z,8.20
2018-03-22T14:18:15.216Z,8.40
2018-03-22T14:20:43.472Z,8.50
2018-03-22T14:23:11.718Z,8.50
2018-03-22T14:25:40.001Z,8.40
2018-03-22T14:28:08.246Z,8.40
2018-03-22T14:30:36.534Z,8.60
2018-03-22T14:33:04.790Z,8.50
2018-03-22T14:35:33.066Z,8.50
2018-03-22T14:38:01.334Z,8.50
2018-03-22T14:40:29.614Z,8.60
2018-03-22T14:42:57.857Z,8.60
2018-03-22T14:45:26.146Z,8.60
2018-03-22T14:47:54.403Z,8.60
2018-03-22T14:50:22.650Z,8.40
2018-03-22T14:52:50.945Z,8.50
2018-03-22T14:55:19.201Z,8.40
2018-03-22T14:57:47.442Z,8.50
2018-03-22T15:00:17.135Z,8.50
2018-03-22T15:02:46.399Z,8.50
2018-03-22T15:05:14.651Z,8.60
2018-03-22T15:07:42.926Z,8.70
2018-03-22T15:10:11.206Z,8.60
2018-03-22T15:12:39.454Z,8.60
2018-03-22T15:15:07.730Z,8.80
2018-03-22T15:17:35.978Z,8.80
2018-03-22T15:20:04.261Z,8.90
2018-03-22T15:22:31.750Z,8.80
2018-03-22T15:24:59.998Z,8.80
2018-03-22T15:27:28.280Z,8.90
2018-03-22T15:29:56.523Z,8.90
2018-03-22T15:32:24.799Z,8.90
2018-03-22T15:34:53.079Z,8.80
2018-03-22T15:37:21.330Z,8.90
2018-03-22T15:39:49.606Z,8.90
2018-03-22T15:42:17.852Z,8.80
2018-03-22T15:44:47.073Z,8.70
2018-03-22T15:47:16.206Z,8.80
2018-03-22T15:49:45.210Z,8.80
2018-03-22T15:52:13.486Z,8.80
2018-03-22T15:54:41.733Z,8.70
2018-03-22T15:57:10.014Z,8.60
2018-03-22T15:59:38.315Z,8.60
2018-03-22T16:02:06.543Z,8.60
2018-03-22T16:04:34.822Z,8.50
2018-03-22T16:07:03.103Z,8.50
2018-03-22T16:09:31.353Z,8.40
2018-03-22T16:11:59.646Z,8.40
2018-03-22T16:14:27.883Z,8.50
2018-03-22T16:16:56.126Z,8.60
2018-03-22T16:19:24.421Z,8.70
2018-03-22T16:21:52.698Z,8.60
2018-03-22T16:24:20.975Z,8.70
2018-03-22T16:26:49.221Z,8.60
2018-03-22T16:29:17.465Z,8.70
2018-03-22T16:31:46.638Z,8.60
2018-03-22T16:34:15.831Z,8.60
2018-03-22T16:36:44.114Z,8.50
2018-03-22T16:39:12.370Z,8.60
2018-03-22T16:41:40.651Z,8.60
2018-03-22T16:44:08.922Z,8.60
2018-03-22T16:46:37.165Z,8.80
2018-03-22T16:49:05.453Z,8.80
2018-03-22T16:51:32.926Z,8.80
2018-03-22T16:54:01.165Z,8.60
2018-03-22T16:56:29.430Z,8.60
2018-03-22T16:58:57.703Z,8.50
2018-03-22T17:01:25.947Z,8.50
2018-03-22T17:03:54.238Z,8.40
2018-03-22T17:06:22.478Z,8.40
2018-03-22T17:08:50.749Z,8.50
2018-03-22T17:11:18.998Z,8.60
2018-03-22T17:13:47.282Z,8.50
2018-03-22T17:16:15.535Z,8.50
2018-03-22T17:18:43.782Z,8.60
2018-03-22T17:21:12.061Z,8.50
2018-03-22T17:23:40.302Z,8.50
2018-03-22T17:26:09.450Z,8.40
2018-03-22T17:28:37.726Z,8.40
2018-03-22T17:31:05.969Z,8.40
2018-03-22T17:33:34.248Z,8.40
2018-03-22T17:36:02.490Z,8.30
2018-03-22T17:38:30.795Z,8.30
2018-03-22T17:40:59.022Z,8.30
2018-03-22T17:43:27.280Z,8.30
2018-03-22T17:45:55.553Z,8.20
2018-03-22T17:48:23.798Z,8.30
2018-03-22T17:50:52.042Z,8.30
2018-03-22T17:53:20.322Z,8.20
2018-03-22T17:55:48.562Z,8.20
2018-03-22T17:58:17.050Z,8.10
2018-03-22T18:00:45.926Z,8.20
2018-03-22T18:03:14.182Z,8.20
2018-03-22T18:05:42.457Z,8.10
2018-03-22T18:08:10.714Z,8.10
2018-03-22T18:10:39.007Z,8.10
2018-03-22T18:13:07.254Z,8.10
2018-03-22T18:15:35.501Z,8.00
2018-03-22T18:18:03.774Z,7.90
2018-03-22T18:20:32.018Z,7.90
2018-03-22T18:23:00.285Z,7.90
2018-03-22T18:25:27.767Z,8.00
2018-03-22T18:27:56.046Z,7.90
2018-03-22T18:30:24.331Z,7.90
2018-03-22T18:32:52.606Z,7.90
2018-03-22T18:35:20.947Z,7.90
2018-03-22T18:37:49.155Z,7.90
2018-03-22T18:40:17.410Z,7.80
2018-03-22T18:42:46.527Z,7.80
2018-03-22T18:45:15.907Z,7.70
2018-03-22T18:47:44.161Z,7.60
2018-03-22T18:50:12.452Z,7.60
2018-03-22T18:52:40.734Z,7.60
2018-03-22T18:55:08.979Z,7.60
2018-03-22T18:57:37.227Z,7.70
2018-03-22T19:00:05.502Z,7.70
2018-03-22T19:02:33.782Z,7.70
2018-03-22T19:05:01.272Z,7.70
2018-03-22T19:07:29.549Z,7.60
2018-03-22T19:09:57.814Z,7.60
2018-03-22T19:12:26.093Z,7.50
2018-03-22T19:14:54.338Z,7.50
2018-03-22T19:17:22.626Z,7.60
2018-03-22T19:19:50.895Z,7.60
2018-03-22T19:22:19.153Z,7.60
2018-03-22T19:24:50.363Z,7.50
2018-03-22T19:27:18.631Z,7.50
2018-03-22T19:29:47.246Z,7.50
2018-03-22T19:32:15.526Z,7.50
2018-03-22T19:34:45.523Z,7.50
2018-03-22T19:37:13.798Z,7.50
2018-03-22T19:39:42.055Z,7.60
2018-03-22T19:42:10.330Z,7.60
2018-03-22T19:44:38.582Z,7.50
2018-03-22T19:47:06.097Z,7.40
2018-03-22T19:49:37.510Z,7.40
2018-03-22T19:52:05.785Z,7.50
2018-03-22T19:54:34.038Z,7.50
2018-03-22T19:57:02.321Z,7.50
2018-03-22T19:59:30.598Z,7.70
2018-03-22T20:01:58.854Z,7.70
2018-03-22T20:04:27.164Z,7.70
2018-03-22T20:06:55.409Z,7.60
2018-03-22T20:09:23.661Z,7.60
2018-03-22T20:11:51.942Z,7.50
2018-03-22T20:14:20.234Z,7.40
2018-03-22T20:16:48.494Z,7.50
2018-03-22T20:19:17.051Z,7.40
2018-03-22T20:21:46.106Z,7.50
2018-03-22T20:24:15.574Z,7.50
2018-03-22T20:26:43.818Z,7.50
2018-03-22T20:29:12.103Z,7.40
2018-03-22T20:31:40.380Z,7.50
2018-03-22T20:34:07.894Z,7.50
2018-03-22T20:36:36.153Z,7.20
2018-03-22T20:39:04.492Z,7.30
2018-03-22T20:41:32.749Z,7.30
2018-03-22T20:44:01.002Z,7.30
2018-03-22T20:46:29.274Z,7.20
2018-03-22T20:48:57.564Z,7.30
2018-03-22T20:51:25.846Z,7.20
2018-03-22T20:53:54.098Z,7.10
2018-03-22T20:56:22.402Z,7.20
2018-03-22T20:58:50.696Z,7.20
2018-03-22T21:01:18.919Z,7.10
2018-03-22T21:03:47.194Z,7.20
2018-03-22T21:06:16.392Z,7.10
2018-03-22T21:08:44.681Z,7.20
2018-03-22T21:11:12.950Z,7.20
2018-03-22T21:13:40.438Z,7.20
2018-03-22T21:16:08.726Z,7.10
2018-03-22T21:18:36.974Z,7.00
2018-03-22T21:21:05.227Z,7.00
2018-03-22T21:23:33.506Z,7.10
2018-03-22T21:26:00.986Z,7.10
2018-03-22T21:28:29.266Z,7.10
2018-03-22T21:30:57.522Z,7.10
2018-03-22T21:33:25.803Z,7.00
2018-03-22T21:35:53.318Z,7.00
2018-03-22T21:38:21.566Z,7.20
2018-03-22T21:40:49.830Z,7.10
2018-03-22T21:43:18.082Z,7.00
2018-03-22T21:45:47.506Z,7.00
2018-03-22T21:48:16.910Z,6.90
2018-03-22T21:50:50.831Z,7.00
2018-03-22T21:53:18.638Z,6.90
2018-03-22T21:55:46.918Z,6.90
2018-03-22T21:58:15.998Z,7.00
2018-03-22T22:00:45.019Z,7.00
2018-03-22T22:03:13.272Z,6.90
2018-03-22T22:05:41.553Z,6.90
2018-03-22T22:08:09.806Z,6.80
2018-03-22T22:10:38.058Z,6.80
2018-03-22T22:13:06.337Z,6.80
2018-03-22T22:15:34.590Z,6.70
2018-03-22T22:18:02.890Z,6.80
2018-03-22T22:20:31.137Z,6.70
2018-03-22T22:22:59.389Z,6.70
2018-03-22T22:25:27.670Z,6.80
2018-03-22T22:27:55.914Z,6.80
2018-03-22T22:30:24.183Z,6.80
2018-03-22T22:32:52.431Z,6.80
2018-03-22T22:35:19.947Z,6.70
2018-03-22T22:37:47.458Z,6.80
2018-03-22T22:40:16.736Z,6.70
2018-03-22T22:42:46.459Z,6.90
2018-03-22T22:45:15.801Z,6.80
2018-03-22T22:47:47.117Z,6.70
2018-03-22T22:50:16.401Z,6.90
2018-03-22T22:52:45.694Z,6.80
2018-03-22T22:55:13.942Z,6.80
2018-03-22T22:57:42.227Z,6.70
2018-03-22T23:00:10.469Z,6.80
2018-03-22T23:02:38.749Z,6.70
2018-03-22T23:05:07.024Z,6.70
2018-03-22T23:07:35.282Z,6.70
2018-03-22T23:10:03.563Z,6.70
2018-03-22T23:12:31.825Z,6.70
2018-03-22T23:15:00.103Z,6.80
2018-03-22T23:17:28.350Z,6.80
2018-03-22T23:19:56.622Z,6.80
2018-03-22T23:22:24.910Z,6.80
2018-03-22T23:24:53.158Z,6.80
2018-03-22T23:27:21.399Z,6.80
2018-03-22T23:29:49.678Z,6.80
2018-03-22T23:32:17.950Z,6.80
2018-03-22T23:34:47.489Z,6.80
2018-03-22T23:37:16.355Z,6.70
2018-03-22T23:39:44.630Z,6.70
2018-03-22T23:42:12.874Z,6.60
2018-03-22T23:44:41.151Z,6.70
2018-03-22T23:47:09.426Z,6.60
2018-03-22T23:49:37.670Z,6.60
2018-03-22T23:52:05.952Z,6.70
2018-03-22T23:54:34.231Z,6.70
2018-03-22T23:57:02.474Z,6.80
2018-03-22T23:59:30.750Z,6.70
